Time;durP1;ratioP1;P1;durP2;ratioP2;P2;SDS_P1;SDS_P2;PMS_P1;PMS_P2;Temp;Humidity;BMP_temperature;BMP_pressure;BME280_temperature;BME280_humidity;BME280_pressure;Samples;Min_cycle;Max_cycle;Signal;HPM_P1;HPM_P2
2022/11/10 00:00:36;;;;;;;3.70;2.37;;;;;;;;;;5099223;28;20201;-64
2022/11/10 00:03:06;;;;;;;4.43;2.20;;;;;;;;;;5099654;28;20209;-65
2022/11/10 00:05:36;;;;;;;2.50;1.83;;;;;;;;;;5099470;28;20570;-64
2022/11/10 00:08:04;;;;;;;1.90;1.80;;;;;;;;;;5099842;28;20205;-64
2022/11/10 00:10:55;;;;;;;3.80;1.93;;;;;;;;;;5099694;28;20212;-64
2022/11/10 00:13:20;;;;;;;2.63;2.00;;;;;;;;;;5099132;28;20228;-64
2022/11/10 00:18:36;;;;;;;3.23;1.70;;;;;;;;;;5099427;28;20225;-65
2022/11/10 00:21:05;;;;;;;2.90;2.03;;;;;;;;;;5099373;28;20212;-64
2022/11/10 00:23:33;;;;;;;3.57;2.30;;;;;;;;;;5099209;28;20221;-64
2022/11/10 00:26:01;;;;;;;4.27;2.67;;;;;;;;;;5099184;28;20209;-65
2022/11/10 00:28:29;;;;;;;3.77;2.20;;;;;;;;;;5098239;28;20202;-64
2022/11/10 00:30:57;;;;;;;4.50;2.27;;;;;;;;;;5099042;28;20566;-65
2022/11/10 00:33:25;;;;;;;2.17;1.77;;;;;;;;;;5099037;28;20225;-65
2022/11/10 00:35:55;;;;;;;4.40;2.17;;;;;;;;;;5099224;28;20212;-65
2022/11/10 00:38:23;;;;;;;4.73;2.20;;;;;;;;;;5099013;28;20236;-65
2022/11/10 00:40:51;;;;;;;3.53;1.80;;;;;;;;;;5099168;28;20211;-65
2022/11/10 00:43:18;;;;;;;4.83;2.20;;;;;;;;;;5098483;28;20216;-65
2022/11/10 00:45:53;;;;;;;4.57;2.40;;;;;;;;;;5098930;28;20220;-65
2022/11/10 00:48:21;;;;;;;2.73;1.77;;;;;;;;;;5098913;28;20202;-65
2022/11/10 00:50:48;;;;;;;2.80;1.90;;;;;;;;;;5098611;28;20232;-65
2022/11/10 00:53:18;;;;;;;2.73;1.77;;;;;;;;;;5098251;28;20202;-65
2022/11/10 00:55:47;;;;;;;2.67;1.70;;;;;;;;;;5098722;28;20206;-65
2022/11/10 00:58:15;;;;;;;3.30;1.60;;;;;;;;;;5097537;28;20573;-65
2022/11/10 01:00:43;;;;;;;5.40;1.50;;;;;;;;;;5098549;28;20220;-65
2022/11/10 01:03:13;;;;;;;5.63;2.00;;;;;;;;;;5098675;28;20214;-65
2022/11/10 01:05:41;;;;;;;3.17;1.83;;;;;;;;;;5098892;28;20206;-65
2022/11/10 01:08:09;;;;;;;3.03;1.70;;;;;;;;;;5098405;28;20228;-65
2022/11/10 01:10:38;;;;;;;4.50;2.00;;;;;;;;;;5098497;28;20212;-64
2022/11/10 01:13:06;;;;;;;3.40;1.80;;;;;;;;;;5098206;28;20209;-65
2022/11/10 01:15:34;;;;;;;3.93;1.70;;;;;;;;;;5098172;28;20205;-64
2022/11/10 01:18:02;;;;;;;3.10;1.30;;;;;;;;;;5098308;28;20225;-65
2022/11/10 01:20:30;;;;;;;2.70;1.53;;;;;;;;;;5098275;28;20205;-65
2022/11/10 01:22:58;;;;;;;5.27;1.80;;;;;;;;;;5096791;28;20206;-65
2022/11/10 01:25:26;;;;;;;3.20;1.47;;;;;;;;;;5097180;28;20683;-65
2022/11/10 01:27:55;;;;;;;6.93;1.70;;;;;;;;;;5097996;28;20216;-64
2022/11/10 01:30:23;;;;;;;4.20;1.33;;;;;;;;;;5097920;28;20215;-64
2022/11/10 01:32:51;;;;;;;4.83;1.77;;;;;;;;;;5097804;28;20249;-64
2022/11/10 01:35:19;;;;;;;4.33;2.03;;;;;;;;;;5098044;28;20229;-64
2022/11/10 01:37:47;;;;;;;2.80;1.60;;;;;;;;;;5097815;28;20211;-64
2022/11/10 01:40:15;;;;;;;4.60;1.50;;;;;;;;;;5097867;28;20201;-63
2022/11/10 01:42:45;;;;;;;4.97;2.10;;;;;;;;;;5097945;28;20213;-64
2022/11/10 01:45:46;;;;;;;5.07;1.80;;;;;;;;;;5097749;28;20226;-63
2022/11/10 01:48:18;;;;;;;3.03;1.83;;;;;;;;;;5031997;28;20192;-65
2022/11/10 01:50:47;;;;;;;4.60;1.90;;;;;;;;;;5029569;28;20208;-63
2022/11/10 01:53:18;;;;;;;3.43;2.57;;;;;;;;;;5065350;28;20204;-64
2022/11/10 01:55:47;;;;;;;5.10;2.60;;;;;;;;;;5097518;28;20718;-64
2022/11/10 01:58:16;;;;;;;3.93;2.50;;;;;;;;;;5097258;28;20697;-63
2022/11/10 02:00:44;;;;;;;5.23;2.40;;;;;;;;;;5097393;28;20209;-64
2022/11/10 02:03:13;;;;;;;2.63;1.93;;;;;;;;;;5097689;28;20217;-65
2022/11/10 02:05:43;;;;;;;4.23;1.90;;;;;;;;;;5099846;28;20209;-65
2022/11/10 02:08:13;;;;;;;5.63;2.50;;;;;;;;;;5101780;28;20201;-64
2022/11/10 02:10:41;;;;;;;3.57;1.60;;;;;;;;;;5101786;28;20687;-64
2022/11/10 02:13:10;;;;;;;3.43;2.27;;;;;;;;;;5101772;28;20205;-64
2022/11/10 02:15:38;;;;;;;5.90;2.23;;;;;;;;;;5101791;28;20209;-65
2022/11/10 02:18:06;;;;;;;6.93;1.87;;;;;;;;;;5101698;28;20575;-65
2022/11/10 02:20:34;;;;;;;4.20;1.90;;;;;;;;;;5101606;28;20225;-65
2022/11/10 02:23:12;;;;;;;4.20;1.60;;;;;;;;;;5101065;28;20205;-65
2022/11/10 02:25:40;;;;;;;4.43;1.50;;;;;;;;;;5089175;28;20201;-65
2022/11/10 02:28:08;;;;;;;2.53;1.77;;;;;;;;;;5101140;28;20554;-64
2022/11/10 02:30:36;;;;;;;4.40;1.70;;;;;;;;;;5101525;28;20206;-65
2022/11/10 02:33:04;;;;;;;3.30;2.10;;;;;;;;;;5101656;28;20210;-65
2022/11/10 02:35:32;;;;;;;9.67;1.77;;;;;;;;;;5101603;28;20210;-65
2022/11/10 02:38:00;;;;;;;3.57;1.80;;;;;;;;;;5101255;28;20209;-65
2022/11/10 02:40:29;;;;;;;2.53;1.53;;;;;;;;;;5101286;28;20229;-65
2022/11/10 02:42:57;;;;;;;5.13;1.60;;;;;;;;;;5101039;28;20205;-65
2022/11/10 02:45:25;;;;;;;1.43;1.33;;;;;;;;;;5101088;28;20232;-65
2022/11/10 02:47:53;;;;;;;5.43;1.70;;;;;;;;;;5101216;28;20217;-65
2022/11/10 02:50:21;;;;;;;5.33;1.70;;;;;;;;;;5101073;28;20210;-64
2022/11/10 02:52:49;;;;;;;6.43;1.50;;;;;;;;;;5099169;28;20205;-64
2022/11/10 02:55:17;;;;;;;3.50;1.33;;;;;;;;;;5098986;28;20695;-65
2022/11/10 02:57:46;;;;;;;1.73;1.10;;;;;;;;;;5100609;28;20562;-64
2022/11/10 03:00:14;;;;;;;2.40;1.37;;;;;;;;;;5100787;28;20225;-64
2022/11/10 03:02:43;;;;;;;2.80;1.50;;;;;;;;;;5101157;28;20206;-65
2022/11/10 03:05:11;;;;;;;3.47;1.30;;;;;;;;;;5100812;28;20232;-66
2022/11/10 03:07:39;;;;;;;2.73;1.20;;;;;;;;;;5100853;28;20201;-65
2022/11/10 03:10:07;;;;;;;4.43;1.40;;;;;;;;;;5100886;28;20212;-66
2022/11/10 03:12:35;;;;;;;4.33;1.27;;;;;;;;;;5100789;28;20205;-65
2022/11/10 03:15:05;;;;;;;3.47;1.20;;;;;;;;;;5100220;28;20241;-65
2022/11/10 03:17:33;;;;;;;4.80;1.20;;;;;;;;;;5099805;28;20209;-66
2022/11/10 03:20:01;;;;;;;3.83;1.30;;;;;;;;;;5100570;28;20226;-65
2022/11/10 03:22:29;;;;;;;3.30;1.30;;;;;;;;;;5100117;28;20212;-65
2022/11/10 03:24:57;;;;;;;2.37;1.43;;;;;;;;;;5100201;28;20257;-65
2022/11/10 03:27:25;;;;;;;2.53;1.77;;;;;;;;;;5100425;28;20206;-65
2022/11/10 03:29:53;;;;;;;2.30;1.30;;;;;;;;;;5100067;28;20224;-65
2022/11/10 03:32:22;;;;;;;3.17;1.33;;;;;;;;;;5100481;28;20209;-65
2022/11/10 03:34:50;;;;;;;2.83;1.40;;;;;;;;;;5099980;28;20236;-65
2022/11/10 03:37:18;;;;;;;2.67;1.27;;;;;;;;;;5100505;28;20304;-65
2022/11/10 03:39:46;;;;;;;2.67;1.60;;;;;;;;;;5099111;28;20217;-65
2022/11/10 03:42:14;;;;;;;1.90;1.30;;;;;;;;;;5100076;28;20221;-63
2022/11/10 03:44:42;;;;;;;4.50;1.80;;;;;;;;;;5092867;28;20218;-64
2022/11/10 03:47:10;;;;;;;3.77;1.30;;;;;;;;;;5100275;28;20206;-63
2022/11/10 03:49:39;;;;;;;4.17;1.57;;;;;;;;;;5100173;28;20208;-64
2022/11/10 03:52:07;;;;;;;1.40;1.30;;;;;;;;;;5100047;28;20221;-64
2022/11/10 03:54:35;;;;;;;3.93;2.30;;;;;;;;;;5099975;28;20225;-64
2022/11/10 03:57:03;;;;;;;5.40;1.80;;;;;;;;;;5099578;28;20233;-64
2022/11/10 03:59:31;;;;;;;5.03;1.60;;;;;;;;;;5099577;28;20274;-65
2022/11/10 04:01:59;;;;;;;6.00;1.53;;;;;;;;;;5098792;28;20211;-64
2022/11/10 04:09:59;;;;;;;3.83;1.80;;;;;;;;;;5099631;28;20212;-64
2022/11/10 04:18:19;;;;;;;5.87;1.53;;;;;;;;;;5099551;28;20291;-64
2022/11/10 04:20:46;;;;;;;2.47;1.53;;;;;;;;;;5099162;28;20229;-64
2022/11/10 04:23:29;;;;;;;6.20;2.00;;;;;;;;;;5099001;28;20596;-63
2022/11/10 04:28:47;;;;;;;5.37;1.80;;;;;;;;;;5085827;28;20217;-64
2022/11/10 04:31:16;;;;;;;5.57;1.53;;;;;;;;;;5098300;28;20198;-64
2022/11/10 04:33:44;;;;;;;4.43;1.77;;;;;;;;;;5098647;28;20227;-64
2022/11/10 04:36:13;;;;;;;4.70;1.73;;;;;;;;;;5098808;28;20677;-65
2022/11/10 04:38:42;;;;;;;5.07;1.70;;;;;;;;;;5099244;28;20205;-63
2022/11/10 04:41:11;;;;;;;5.80;1.87;;;;;;;;;;5098703;28;20723;-64
2022/11/10 04:43:39;;;;;;;4.27;1.57;;;;;;;;;;5098630;28;20229;-64
2022/11/10 04:46:08;;;;;;;7.97;2.13;;;;;;;;;;5098754;28;20205;-64
2022/11/10 04:48:36;;;;;;;2.57;1.30;;;;;;;;;;5098880;28;20205;-65
2022/11/10 04:51:04;;;;;;;4.23;1.57;;;;;;;;;;5098928;28;20202;-64
2022/11/10 04:53:33;;;;;;;2.23;1.77;;;;;;;;;;5098717;28;20221;-65
2022/11/10 04:56:02;;;;;;;3.87;1.50;;;;;;;;;;5098359;28;20216;-65
2022/11/10 04:58:30;;;;;;;4.37;1.70;;;;;;;;;;5096348;28;20215;-65
2022/11/10 05:00:58;;;;;;;2.30;1.43;;;;;;;;;;5098288;28;20227;-65
2022/11/10 05:03:26;;;;;;;5.30;1.93;;;;;;;;;;5097507;28;20228;-64
2022/11/10 05:05:54;;;;;;;3.80;1.77;;;;;;;;;;5098410;28;20572;-64
2022/11/10 05:08:22;;;;;;;3.00;1.53;;;;;;;;;;5094533;28;20213;-62
2022/11/10 05:10:50;;;;;;;6.20;2.43;;;;;;;;;;5097249;28;20232;-63
2022/11/10 05:13:20;;;;;;;4.30;2.00;;;;;;;;;;5094015;28;20564;-63
2022/11/10 05:15:48;;;;;;;5.40;1.73;;;;;;;;;;5095025;28;20239;-63
2022/11/10 05:18:16;;;;;;;6.17;1.83;;;;;;;;;;5098478;28;20243;-63
2022/11/10 05:20:44;;;;;;;3.53;1.70;;;;;;;;;;5097263;28;20224;-62
2022/11/10 05:25:58;;;;;;;3.83;1.67;;;;;;;;;;5096222;28;20640;-62
2022/11/10 05:28:28;;;;;;;5.50;2.40;;;;;;;;;;5096645;28;20605;-62
2022/11/10 05:30:56;;;;;;;2.43;1.70;;;;;;;;;;5097251;28;20288;-62
2022/11/10 05:33:24;;;;;;;3.50;1.73;;;;;;;;;;5098164;28;20217;-63
2022/11/10 05:35:52;;;;;;;9.00;2.13;;;;;;;;;;5097146;28;20564;-63
2022/11/10 05:38:20;;;;;;;8.47;1.83;;;;;;;;;;5094873;28;20375;-63
2022/11/10 05:40:48;;;;;;;19.40;2.73;;;;;;;;;;5094164;28;20232;-63
2022/11/10 05:43:16;;;;;;;2.53;1.60;;;;;;;;;;5094907;28;20194;-63
2022/11/10 05:45:46;;;;;;;6.10;1.60;;;;;;;;;;5095844;28;20202;-64
2022/11/10 05:48:14;;;;;;;9.93;1.57;;;;;;;;;;5096842;28;20204;-63
2022/11/10 05:50:42;;;;;;;4.50;1.73;;;;;;;;;;5096805;28;20236;-63
2022/11/10 05:53:10;;;;;;;7.47;1.83;;;;;;;;;;5095948;28;20201;-63
2022/11/10 05:55:38;;;;;;;5.77;2.10;;;;;;;;;;5094154;28;20663;-63
2022/11/10 05:58:07;;;;;;;5.57;2.10;;;;;;;;;;5095996;28;20327;-63
2022/11/10 06:00:37;;;;;;;9.10;2.60;;;;;;;;;;5096099;28;20647;-63
2022/11/10 06:03:07;;;;;;;4.40;1.50;;;;;;;;;;5096692;28;20201;-63
2022/11/10 06:05:35;;;;;;;4.10;1.40;;;;;;;;;;5096238;28;20201;-64
2022/11/10 06:08:04;;;;;;;3.50;1.80;;;;;;;;;;5095352;28;20208;-64
2022/11/10 06:10:33;;;;;;;8.30;1.80;;;;;;;;;;5096500;28;20208;-63
2022/11/10 06:13:01;;;;;;;5.80;1.90;;;;;;;;;;5097088;28;20215;-63
2022/11/10 06:15:29;;;;;;;3.53;1.70;;;;;;;;;;5097206;28;20197;-62
2022/11/10 06:17:57;;;;;;;1.70;1.30;;;;;;;;;;5097309;28;20202;-61
2022/11/10 06:20:27;;;;;;;5.80;1.80;;;;;;;;;;5097446;28;20573;-61
2022/11/10 06:22:59;;;;;;;4.33;1.97;;;;;;;;;;5097593;28;20201;-60
2022/11/10 06:25:28;;;;;;;6.10;2.00;;;;;;;;;;5097224;28;20211;-60
2022/11/10 06:27:56;;;;;;;3.90;1.67;;;;;;;;;;5096341;28;20213;-59
2022/11/10 06:30:24;;;;;;;9.93;5.57;;;;;;;;;;5097060;28;20205;-60
2022/11/10 06:32:52;;;;;;;7.90;2.40;;;;;;;;;;5097519;28;20238;-59
2022/11/10 06:35:20;;;;;;;5.83;1.97;;;;;;;;;;5097376;28;20240;-61
2022/11/10 06:37:58;;;;;;;4.40;1.80;;;;;;;;;;5085811;28;20653;-60
2022/11/10 06:40:26;;;;;;;6.33;2.20;;;;;;;;;;5091195;28;20212;-60
2022/11/10 06:42:54;;;;;;;5.37;1.80;;;;;;;;;;5095910;28;20198;-59
2022/11/10 06:45:22;;;;;;;8.07;2.07;;;;;;;;;;5095953;28;20227;-59
2022/11/10 06:47:58;;;;;;;3.73;2.17;;;;;;;;;;5085471;28;20208;-60
2022/11/10 06:50:26;;;;;;;6.53;2.33;;;;;;;;;;5085229;28;20205;-61
2022/11/10 06:52:54;;;;;;;7.43;2.60;;;;;;;;;;5089125;28;20201;-60
2022/11/10 06:55:24;;;;;;;5.13;2.10;;;;;;;;;;5090480;28;20705;-63
2022/11/10 06:57:53;;;;;;;5.60;2.03;;;;;;;;;;5095207;28;20231;-63
2022/11/10 07:00:21;;;;;;;4.83;2.57;;;;;;;;;;5086959;28;20205;-63
2022/11/10 07:02:58;;;;;;;5.97;2.43;;;;;;;;;;5090343;28;20225;-62
2022/11/10 07:05:26;;;;;;;3.90;2.30;;;;;;;;;;5090825;28;20209;-62
2022/11/10 07:07:54;;;;;;;9.07;2.80;;;;;;;;;;5090943;28;20773;-62
2022/11/10 07:10:24;;;;;;;5.20;2.07;;;;;;;;;;5091076;28;20221;-63
2022/11/10 07:12:56;;;;;;;8.13;3.60;;;;;;;;;;5090277;28;20212;-63
2022/11/10 07:15:24;;;;;;;5.17;2.47;;;;;;;;;;5090393;28;20243;-63
2022/11/10 07:17:52;;;;;;;4.17;2.10;;;;;;;;;;5089416;28;20277;-63
2022/11/10 07:20:20;;;;;;;7.03;2.70;;;;;;;;;;5090541;28;20269;-62
2022/11/10 07:22:48;;;;;;;4.13;2.30;;;;;;;;;;5089642;28;22249;-63
2022/11/10 07:25:16;;;;;;;3.67;2.10;;;;;;;;;;5089906;28;20271;-62
2022/11/10 07:27:46;;;;;;;3.87;1.80;;;;;;;;;;5095716;28;20228;-63
2022/11/10 07:30:14;;;;;;;7.47;2.27;;;;;;;;;;5088167;28;20224;-63
2022/11/10 07:32:44;;;;;;;5.13;2.20;;;;;;;;;;5090416;28;20259;-63
2022/11/10 07:35:13;;;;;;;6.03;2.30;;;;;;;;;;5088920;28;20648;-63
2022/11/10 07:37:41;;;;;;;4.10;2.50;;;;;;;;;;5090180;28;20198;-63
2022/11/10 07:40:10;;;;;;;6.40;2.47;;;;;;;;;;5089353;28;20201;-63
2022/11/10 07:42:39;;;;;;;7.10;2.37;;;;;;;;;;5089233;28;20267;-63
2022/11/10 07:45:10;;;;;;;5.37;2.30;;;;;;;;;;5088745;28;20225;-63
2022/11/10 07:47:38;;;;;;;6.80;2.10;;;;;;;;;;5088754;28;20328;-63
2022/11/10 07:50:07;;;;;;;4.87;2.40;;;;;;;;;;5089198;28;20603;-63
2022/11/10 07:52:35;;;;;;;3.63;2.13;;;;;;;;;;5088996;28;20193;-63
2022/11/10 07:55:04;;;;;;;4.63;2.40;;;;;;;;;;5088961;28;20582;-63
2022/11/10 07:57:33;;;;;;;3.47;2.57;;;;;;;;;;5090431;28;20234;-65
2022/11/10 08:00:02;;;;;;;3.27;2.73;;;;;;;;;;5089572;28;20204;-66
2022/11/10 08:02:31;;;;;;;4.47;2.60;;;;;;;;;;5089671;28;20226;-65
2022/11/10 08:04:59;;;;;;;4.93;2.70;;;;;;;;;;5090071;28;20271;-65
2022/11/10 08:07:27;;;;;;;8.67;2.93;;;;;;;;;;5090054;28;20289;-65
2022/11/10 08:09:57;;;;;;;5.37;2.87;;;;;;;;;;5089498;28;20201;-65
2022/11/10 08:12:25;;;;;;;3.63;3.00;;;;;;;;;;5089632;28;20201;-63
2022/11/10 08:14:57;;;;;;;4.30;2.73;;;;;;;;;;5089357;28;20236;-63
2022/11/10 08:17:26;;;;;;;6.07;3.30;;;;;;;;;;5088352;28;20201;-63
2022/11/10 08:19:56;;;;;;;4.20;3.00;;;;;;;;;;5089294;28;20230;-63
2022/11/10 08:22:24;;;;;;;8.40;3.17;;;;;;;;;;5087972;28;20248;-63
2022/11/10 08:24:52;;;;;;;5.13;2.60;;;;;;;;;;5088418;28;20223;-65
2022/11/10 08:27:20;;;;;;;6.50;2.80;;;;;;;;;;5090814;28;20202;-65
2022/11/10 08:29:49;;;;;;;13.37;2.73;;;;;;;;;;5088100;28;20197;-65
2022/11/10 08:32:17;;;;;;;4.70;2.53;;;;;;;;;;5089075;28;20194;-64
2022/11/10 08:34:45;;;;;;;4.20;2.20;;;;;;;;;;5087468;28;20230;-65
2022/11/10 08:37:15;;;;;;;5.90;2.57;;;;;;;;;;5090029;28;20205;-64
2022/11/10 08:39:43;;;;;;;6.20;2.47;;;;;;;;;;5089544;28;20232;-65
2022/11/10 08:42:12;;;;;;;7.33;1.90;;;;;;;;;;5089501;28;20222;-65
2022/11/10 08:44:40;;;;;;;7.10;1.93;;;;;;;;;;5091791;28;20582;-64
2022/11/10 08:47:08;;;;;;;3.73;2.17;;;;;;;;;;5090986;28;20640;-63
2022/11/10 08:49:36;;;;;;;9.40;2.40;;;;;;;;;;5087587;28;20202;-63
2022/11/10 08:52:04;;;;;;;3.47;2.57;;;;;;;;;;5087679;28;20205;-62
2022/11/10 08:54:34;;;;;;;7.87;2.97;;;;;;;;;;5089153;28;20233;-62
2022/11/10 08:57:02;;;;;;;4.90;2.23;;;;;;;;;;5089352;28;20723;-64
2022/11/10 08:59:30;;;;;;;7.60;3.23;;;;;;;;;;5087753;28;20209;-64
2022/11/10 09:01:59;;;;;;;6.87;3.20;;;;;;;;;;5086288;28;20230;-64
2022/11/10 09:04:27;;;;;;;3.67;2.17;;;;;;;;;;5087776;28;20651;-62
2022/11/10 09:06:56;;;;;;;9.10;2.50;;;;;;;;;;5087451;28;20213;-64
2022/11/10 09:09:25;;;;;;;6.57;2.03;;;;;;;;;;5088461;28;20197;-62
2022/11/10 09:11:54;;;;;;;4.07;1.83;;;;;;;;;;5090821;28;20227;-65
2022/11/10 09:14:22;;;;;;;5.23;2.23;;;;;;;;;;5096838;28;20268;-64
2022/11/10 09:16:50;;;;;;;2.73;1.70;;;;;;;;;;5095363;28;20200;-63
2022/11/10 09:19:22;;;;;;;5.93;2.40;;;;;;;;;;5094047;28;20258;-64
2022/11/10 09:21:51;;;;;;;7.83;2.00;;;;;;;;;;5092022;28;20576;-63
2022/11/10 09:24:19;;;;;;;9.27;2.37;;;;;;;;;;5090779;28;20305;-63
2022/11/10 09:26:47;;;;;;;6.13;2.00;;;;;;;;;;5094137;28;20202;-63
2022/11/10 09:29:17;;;;;;;5.33;1.60;;;;;;;;;;5092177;28;20209;-64
2022/11/10 09:31:45;;;;;;;4.53;2.07;;;;;;;;;;5095802;28;20198;-64
2022/11/10 09:34:13;;;;;;;6.30;2.00;;;;;;;;;;5094597;28;20213;-63
2022/11/10 09:36:42;;;;;;;3.80;2.13;;;;;;;;;;5093111;28;20210;-63
2022/11/10 09:39:10;;;;;;;2.43;1.53;;;;;;;;;;5097216;28;20660;-64
2022/11/10 09:41:40;;;;;;;4.30;1.57;;;;;;;;;;5095914;28;20201;-65
2022/11/10 09:44:12;;;;;;;9.00;2.10;;;;;;;;;;5093094;28;20232;-62
2022/11/10 09:46:43;;;;;;;4.37;2.13;;;;;;;;;;5087999;28;20228;-64
2022/11/10 09:49:18;;;;;;;7.37;1.87;;;;;;;;;;5079790;28;20194;-64
2022/11/10 09:51:47;;;;;;;7.33;1.90;;;;;;;;;;5091436;28;20201;-65
2022/11/10 09:54:22;;;;;;;6.80;1.93;;;;;;;;;;5089853;28;20259;-63
2022/11/10 09:56:52;;;;;;;2.97;2.13;;;;;;;;;;5087424;28;20228;-64
2022/11/10 09:59:24;;;;;;;6.80;2.37;;;;;;;;;;5095557;28;20198;-63
2022/11/10 10:01:59;;;;;;;5.23;1.93;;;;;;;;;;5094242;28;20269;-64
2022/11/10 10:04:33;;;;;;;4.27;2.00;;;;;;;;;;5086832;28;20828;-63
2022/11/10 10:07:06;;;;;;;8.03;2.10;;;;;;;;;;5086528;28;20197;-64
2022/11/10 10:09:44;;;;;;;7.37;2.67;;;;;;;;;;5086312;28;20290;-64
2022/11/10 10:12:19;;;;;;;4.00;2.23;;;;;;;;;;5086849;28;20205;-63
2022/11/10 10:14:56;;;;;;;5.10;2.33;;;;;;;;;;5088196;28;20321;-64
2022/11/10 10:17:28;;;;;;;3.37;1.60;;;;;;;;;;5090090;28;20645;-64
2022/11/10 10:19:58;;;;;;;4.83;2.43;;;;;;;;;;5087307;28;20289;-65
2022/11/10 10:22:33;;;;;;;8.83;2.00;;;;;;;;;;5088303;28;20221;-63
2022/11/10 10:25:03;;;;;;;5.67;2.20;;;;;;;;;;5087058;28;20288;-63
2022/11/10 10:27:32;;;;;;;4.73;1.63;;;;;;;;;;5088536;28;20269;-65
2022/11/10 10:30:01;;;;;;;3.10;1.80;;;;;;;;;;5089225;28;20197;-65
2022/11/10 10:32:31;;;;;;;3.17;1.50;;;;;;;;;;5087822;28;20208;-65
2022/11/10 10:34:59;;;;;;;3.67;1.60;;;;;;;;;;5092644;28;20225;-65
2022/11/10 10:37:32;;;;;;;4.30;1.80;;;;;;;;;;5095921;28;20205;-65
2022/11/10 10:40:01;;;;;;;3.17;1.17;;;;;;;;;;5088685;28;20201;-65
2022/11/10 10:42:30;;;;;;;6.27;1.93;;;;;;;;;;5097726;28;20229;-65
2022/11/10 10:45:15;;;;;;;3.77;1.73;;;;;;;;;;5092303;28;20225;-65
2022/11/10 10:47:45;;;;;;;8.53;2.47;;;;;;;;;;5089094;28;20645;-65
2022/11/10 10:50:20;;;;;;;8.30;2.63;;;;;;;;;;5092419;28;20198;-65
2022/11/10 10:53:05;;;;;;;6.73;2.37;;;;;;;;;;5095954;28;20207;-65
2022/11/10 10:55:33;;;;;;;4.63;2.23;;;;;;;;;;5092507;28;20285;-68
2022/11/10 10:58:02;;;;;;;7.17;2.07;;;;;;;;;;5098961;28;20272;-66
2022/11/10 11:00:32;;;;;;;4.00;2.10;;;;;;;;;;5098538;28;20198;-65
2022/11/10 11:03:05;;;;;;;8.30;2.77;;;;;;;;;;5101339;28;20228;-64
2022/11/10 11:05:34;;;;;;;5.07;2.23;;;;;;;;;;5099312;28;20201;-64
2022/11/10 11:08:02;;;;;;;4.33;2.03;;;;;;;;;;5099644;28;20201;-66
2022/11/10 11:10:32;;;;;;;3.40;2.27;;;;;;;;;;5099578;28;20217;-65
2022/11/10 11:13:13;;;;;;;4.17;1.77;;;;;;;;;;5100980;28;20220;-64
2022/11/10 11:15:41;;;;;;;5.43;1.83;;;;;;;;;;5100381;28;20201;-66
2022/11/10 11:18:13;;;;;;;3.83;1.53;;;;;;;;;;5101365;28;20202;-65
2022/11/10 11:20:46;;;;;;;4.73;2.00;;;;;;;;;;5099400;28;20208;-63
2022/11/10 11:23:25;;;;;;;8.33;2.37;;;;;;;;;;5095245;28;20217;-64
2022/11/10 11:25:54;;;;;;;4.77;2.23;;;;;;;;;;5099720;28;20205;-66
2022/11/10 11:28:26;;;;;;;5.47;2.00;;;;;;;;;;5096593;28;20233;-66
2022/11/10 11:31:00;;;;;;;4.27;2.20;;;;;;;;;;5087343;28;20197;-63
2022/11/10 11:33:33;;;;;;;6.17;2.27;;;;;;;;;;5099059;28;20213;-64
2022/11/10 11:36:04;;;;;;;5.97;1.97;;;;;;;;;;5099180;28;20564;-65
2022/11/10 11:38:32;;;;;;;6.37;2.13;;;;;;;;;;5099498;28;20227;-66
2022/11/10 11:41:06;;;;;;;7.13;1.80;;;;;;;;;;5098595;28;20201;-65
2022/11/10 11:43:39;;;;;;;4.90;1.40;;;;;;;;;;5097967;28;20225;-64
2022/11/10 11:46:13;;;;;;;6.40;1.60;;;;;;;;;;5094183;28;20198;-66
2022/11/10 11:48:50;;;;;;;4.20;1.60;;;;;;;;;;5099539;28;20231;-66
2022/11/10 11:51:22;;;;;;;2.47;1.50;;;;;;;;;;5099399;28;20201;-66
2022/11/10 11:53:58;;;;;;;5.13;2.10;;;;;;;;;;5099469;28;20227;-65
2022/11/10 11:56:28;;;;;;;4.77;2.13;;;;;;;;;;5098672;28;20228;-65
2022/11/10 11:59:02;;;;;;;3.70;1.23;;;;;;;;;;5099014;28;20684;-65
2022/11/10 12:01:44;;;;;;;4.80;1.97;;;;;;;;;;5096932;28;20667;-65
2022/11/10 12:04:28;;;;;;;3.33;1.50;;;;;;;;;;5099480;28;20230;-65
2022/11/10 12:07:01;;;;;;;5.43;1.73;;;;;;;;;;5099330;28;20205;-65
2022/11/10 12:09:34;;;;;;;7.60;1.93;;;;;;;;;;5098756;28;20239;-65
2022/11/10 12:12:07;;;;;;;8.17;2.00;;;;;;;;;;5098114;28;20657;-66
2022/11/10 12:14:41;;;;;;;4.80;1.50;;;;;;;;;;5093943;28;20213;-66
2022/11/10 12:17:13;;;;;;;2.93;1.50;;;;;;;;;;5092048;28;20198;-65
2022/11/10 12:19:45;;;;;;;3.77;1.60;;;;;;;;;;5096559;28;20292;-65
2022/11/10 12:22:24;;;;;;;5.20;1.40;;;;;;;;;;5099323;28;20240;-65
2022/11/10 12:25:07;;;;;;;7.50;1.73;;;;;;;;;;5097036;28;20228;-65
2022/11/10 12:27:38;;;;;;;4.33;1.50;;;;;;;;;;5096701;28;20202;-66
2022/11/10 12:30:09;;;;;;;3.47;1.80;;;;;;;;;;5097574;28;20212;-64
2022/11/10 12:32:41;;;;;;;4.87;1.50;;;;;;;;;;5098251;28;20201;-64
2022/11/10 12:35:14;;;;;;;4.03;1.43;;;;;;;;;;5098004;28;20224;-65
2022/11/10 12:37:44;;;;;;;7.57;1.83;;;;;;;;;;5098025;28;20568;-65
2022/11/10 12:40:15;;;;;;;4.07;1.40;;;;;;;;;;5098317;28;20653;-64
2022/11/10 12:42:45;;;;;;;4.13;1.80;;;;;;;;;;5098070;28;20198;-64
2022/11/10 12:45:19;;;;;;;5.33;2.10;;;;;;;;;;5097774;28;20221;-65
2022/11/10 12:47:47;;;;;;;8.90;1.90;;;;;;;;;;5097267;28;20198;-66
2022/11/10 12:50:25;;;;;;;4.53;1.57;;;;;;;;;;5096987;28;20201;-65
2022/11/10 12:52:55;;;;;;;2.87;1.27;;;;;;;;;;5097819;28;20205;-65
2022/11/10 12:55:27;;;;;;;4.77;1.60;;;;;;;;;;5096229;28;20209;-65
2022/11/10 12:57:55;;;;;;;7.17;1.60;;;;;;;;;;5086238;28;20233;-65
2022/11/10 13:00:24;;;;;;;6.23;1.70;;;;;;;;;;5095550;28;20197;-64
2022/11/10 13:02:57;;;;;;;5.73;1.70;;;;;;;;;;5097937;28;20209;-66
2022/11/10 13:05:32;;;;;;;6.47;1.83;;;;;;;;;;5094896;28;20225;-66
2022/11/10 13:08:11;;;;;;;3.73;1.40;;;;;;;;;;5083907;28;20204;-65
2022/11/10 13:10:47;;;;;;;4.30;1.40;;;;;;;;;;5096913;28;20205;-65
2022/11/10 13:13:17;;;;;;;2.70;1.53;;;;;;;;;;5097217;28;20212;-66
2022/11/10 13:15:56;;;;;;;5.47;1.97;;;;;;;;;;5097214;28;20198;-65
2022/11/10 13:18:44;;;;;;;3.30;1.90;;;;;;;;;;5085897;28;20200;-65
2022/11/10 13:21:14;;;;;;;6.23;1.80;;;;;;;;;;5097260;28;20209;-65
2022/11/10 13:24:01;;;;;;;4.73;1.73;;;;;;;;;;5096869;28;20224;-66
2022/11/10 13:26:49;;;;;;;4.60;1.80;;;;;;;;;;5094834;28;20274;-65
2022/11/10 13:29:30;;;;;;;4.17;2.00;;;;;;;;;;5097609;28;20201;-65
2022/11/10 13:31:59;;;;;;;3.80;1.67;;;;;;;;;;5096036;28;20206;-65
2022/11/10 13:34:29;;;;;;;5.97;1.60;;;;;;;;;;5095679;28;20225;-66
2022/11/10 13:36:58;;;;;;;6.70;2.40;;;;;;;;;;5097266;28;20277;-66
2022/11/10 13:39:28;;;;;;;4.50;1.90;;;;;;;;;;5097277;28;20296;-66
2022/11/10 13:42:00;;;;;;;5.07;1.80;;;;;;;;;;5098208;28;20288;-66
2022/11/10 13:44:29;;;;;;;6.23;2.20;;;;;;;;;;5096596;28;20224;-66
2022/11/10 13:47:03;;;;;;;4.80;1.57;;;;;;;;;;5097367;28;20549;-66
2022/11/10 13:49:35;;;;;;;4.13;1.73;;;;;;;;;;5096994;28;20196;-66
2022/11/10 13:52:10;;;;;;;2.37;1.67;;;;;;;;;;5097149;28;20201;-66
2022/11/10 13:54:49;;;;;;;3.53;1.37;;;;;;;;;;5095205;28;20213;-66
2022/11/10 13:57:27;;;;;;;4.93;2.20;;;;;;;;;;5091757;28;20248;-66
2022/11/10 13:59:56;;;;;;;4.13;1.47;;;;;;;;;;5096758;28;20211;-66
2022/11/10 14:02:45;;;;;;;4.07;1.70;;;;;;;;;;5096580;28;20205;-65
2022/11/10 14:05:28;;;;;;;6.47;1.70;;;;;;;;;;5090691;28;20229;-65
2022/11/10 14:08:02;;;;;;;3.23;1.50;;;;;;;;;;5096630;28;20205;-65
2022/11/10 14:10:35;;;;;;;9.67;1.87;;;;;;;;;;5096570;28;20208;-65
2022/11/10 14:13:05;;;;;;;5.23;1.60;;;;;;;;;;5096831;28;20212;-65
2022/11/10 14:15:38;;;;;;;5.90;2.33;;;;;;;;;;5096758;28;20202;-66
2022/11/10 14:18:16;;;;;;;12.90;5.87;;;;;;;;;;5093047;28;20198;-65
2022/11/10 14:20:45;;;;;;;4.77;1.90;;;;;;;;;;5095991;28;20205;-65
2022/11/10 14:23:18;;;;;;;2.53;1.40;;;;;;;;;;5096168;28;20204;-65
2022/11/10 14:25:51;;;;;;;5.30;1.67;;;;;;;;;;5097035;28;20225;-66
2022/11/10 14:28:24;;;;;;;5.37;1.47;;;;;;;;;;5094783;28;20683;-65
2022/11/10 14:30:53;;;;;;;5.50;1.80;;;;;;;;;;5097338;28;20197;-65
2022/11/10 14:33:22;;;;;;;4.57;1.60;;;;;;;;;;5093601;28;20259;-67
2022/11/10 14:35:51;;;;;;;3.07;2.00;;;;;;;;;;5102247;28;20198;-66
2022/11/10 14:38:22;;;;;;;8.50;1.67;;;;;;;;;;5092526;28;20202;-65
2022/11/10 14:40:50;;;;;;;4.30;1.60;;;;;;;;;;5095495;28;20367;-66
2022/11/10 14:43:26;;;;;;;4.20;1.80;;;;;;;;;;5095783;28;20204;-65
2022/11/10 14:45:54;;;;;;;2.80;1.30;;;;;;;;;;5094037;28;20700;-64
2022/11/10 14:48:23;;;;;;;5.03;1.60;;;;;;;;;;5096271;28;20206;-65
2022/11/10 14:50:52;;;;;;;2.07;1.80;;;;;;;;;;5095668;28;20197;-65
2022/11/10 14:53:25;;;;;;;5.37;1.50;;;;;;;;;;5094527;28;20228;-64
2022/11/10 14:55:53;;;;;;;4.90;1.70;;;;;;;;;;5093446;28;20198;-65
2022/11/10 14:58:24;;;;;;;3.40;1.80;;;;;;;;;;5094103;28;20280;-64
2022/11/10 15:00:52;;;;;;;3.60;1.80;;;;;;;;;;5094838;28;20243;-64
2022/11/10 15:03:25;;;;;;;3.77;2.20;;;;;;;;;;5095164;28;20204;-64
2022/11/10 15:05:53;;;;;;;5.97;1.90;;;;;;;;;;5094049;28;20217;-65
2022/11/10 15:08:23;;;;;;;3.43;1.83;;;;;;;;;;5095155;28;20198;-65
2022/11/10 15:10:55;;;;;;;5.63;1.70;;;;;;;;;;5095202;28;20206;-65
2022/11/10 15:13:34;;;;;;;8.27;2.00;;;;;;;;;;5093263;28;20236;-65
2022/11/10 15:16:22;;;;;;;5.10;1.60;;;;;;;;;;5098167;28;20201;-64
2022/11/10 15:18:49;;;;;;;3.03;1.60;;;;;;;;;;5099130;28;20266;-65
2022/11/10 15:21:18;;;;;;;2.13;1.27;;;;;;;;;;5098750;28;20205;-65